MMVR/VER METAR and TAF weather

Enter ICAO airport designator
Station Type Date Time Source
MMVR METAR 2019/06/27 03:45 UTC NOAA

MMVR 270345Z 01004KT 7SM SCT010 28/28 A3001 RMK 8/100 HZY


Station Type Date Time Source
MMVR Decoded METAR 2019/06/27 03:45 UTC NOAA

Veracruz / Las Bajadas / General Heriberto Jara, Mexico (MMVR) 19-09N 096-11W
Jun 26, 2019 - 11:45 PM EDT / 2019.06.27 0345 UTC
Wind: from the N (010 degrees) at 5 MPH (4 KT):0
Visibility: 7 mile(s):0
Sky conditions: partly cloudy
Temperature: 82 F (28 C)
Dew Point: 82 F (28 C)
Relative Humidity: 100%
Pressure (altimeter): 30.01 in. Hg (1016 hPa)
ob: MMVR 270345Z 01004KT 7SM SCT010 28/28 A3001 RMK 8/100 HZY
cycle: 4

Station Type Date Time Source
MMVR TAF 2019/06/26 18:19 UTC NOAA

TAF MMVR 261715Z 2618/2718 07005KT 6SM HZ SCT025 BKN080 TX35/2621Z TN25/2712Z
BECMG 2620/2621 05012KT
FM270200 03008KT 6SM HZ SCT020 SCT080 BKN250
FM270800 03008KT 6SM HZ BKN020CB BKN080 PROB40 2709/2713 4SM TSRA
FM271400 34006KT 5SM -RA BKN020CB BKN080

Example: see airport list